Terminal Aerodrome Forecast
Issued by NWS

Home | Current Version | Previous Version | Text Only | Print | Product List | Glossary On
Versions: 1 2 3 4 5 6 7 8 9 10 11 12 13 14 15 16 17 18 19 20 21 22 23 24 25 26 27 28 29 30 31
000
FTUS43 KLOT 231121
TAFORD
TAF
KORD 231121Z 2312/2418 00000KT 5SM BR BCFG SCT250
      TEMPO 2312/2313 2SM BR MIFG
     FM231300 VRB03KT P6SM FEW250
     FM231800 08007KT P6SM SCT250
      TEMPO 2318/2320 08011KT
     FM241400 16007KT P6SM SCT200=

USA.gov is the U.S. government's official web portal to all federal, state and local government web resources and services.